Time;durP1;ratioP1;P1;durP2;ratioP2;P2;SDS_P1;SDS_P2;PMS_P1;PMS_P2;Temp;Humidity;BMP_temperature;BMP_pressure;BME280_temperature;BME280_humidity;BME280_pressure;Samples;Min_cycle;Max_cycle;Signal;HPM_P1;HPM_P2
2022/09/13 00:01:27;;;;;;;34.10;20.10;;;;;;;16.12;80.26;98229.63;25048;1316;3051253;-60
2022/09/13 00:03:56;;;;;;;22.80;13.20;;;;;;;15.97;81.30;98228.36;25097;1313;3026807;-59
2022/09/13 00:06:25;;;;;;;26.00;15.00;;;;;;;16.38;80.42;98226.19;25052;1315;3071075;-62
2022/09/13 00:08:54;;;;;;;35.20;19.10;;;;;;;16.69;78.73;98225.25;25087;1316;3026405;-61
2022/09/13 00:11:25;;;;;;;34.50;18.10;;;;;;;16.65;78.83;98228.55;25041;1313;3026567;-63
2022/09/13 00:13:55;;;;;;;33.30;18.70;;;;;;;16.42;79.52;98227.16;25087;1313;3069307;-63
2022/09/13 00:16:25;;;;;;;30.30;19.20;;;;;;;16.19;80.60;98231.83;25148;1316;3026956;-63
2022/09/13 00:18:55;;;;;;;15.60;10.40;;;;;;;15.95;82.05;98233.05;25083;1316;3026225;-59
2022/09/13 00:21:24;;;;;;;28.50;14.90;;;;;;;16.33;81.12;98228.52;25077;1313;3026570;-61
2022/09/13 00:23:53;;;;;;;32.40;19.30;;;;;;;16.67;79.48;98224.44;25076;1313;3050909;-62
2022/09/13 00:26:26;;;;;;;28.90;18.00;;;;;;;16.64;79.11;98220.72;25068;1316;3026536;-60
2022/09/13 00:28:56;;;;;;;33.70;19.20;;;;;;;16.34;80.26;98222.42;25053;1313;3071239;-60
2022/09/13 00:31:26;;;;;;;32.10;19.40;;;;;;;16.12;81.31;98224.39;25038;1313;3026742;-61
2022/09/13 00:33:58;;;;;;;19.40;11.00;;;;;;;15.96;82.45;98221.16;25029;1316;3026519;-61
2022/09/13 00:36:27;;;;;;;24.30;15.10;;;;;;;16.38;81.11;98218.73;25054;1316;3026817;-61
2022/09/13 00:38:56;;;;;;;30.40;17.20;;;;;;;16.72;79.26;98209.16;25110;1313;3026674;-61
2022/09/13 00:41:25;;;;;;;27.30;16.80;;;;;;;16.70;78.63;98208.35;25112;1313;3054337;-61
2022/09/13 00:43:56;;;;;;;30.60;16.60;;;;;;;16.63;78.83;98208.52;25091;1313;3027015;-59
2022/09/13 00:46:36;;;;;;;33.10;17.90;;;;;;;16.49;79.60;98208.23;25088;1313;3050331;-59
2022/09/13 00:49:30;;;;;;;24.00;12.20;;;;;;;16.35;80.04;98206.20;25083;1313;3055145;-60
2022/09/13 00:52:02;;;;;;;30.00;14.70;;;;;;;16.93;78.37;98197.61;25044;1313;3054680;-59
2022/09/13 00:54:41;;;;;;;32.00;16.80;;;;;;;17.27;76.92;98198.08;25111;1313;3028084;-61
2022/09/13 00:57:12;;;;;;;30.50;16.00;;;;;;;17.19;76.55;98200.38;25080;1313;3050360;-60
2022/09/13 00:59:46;;;;;;;32.00;18.00;;;;;;;16.96;76.87;98197.10;25082;1313;3026417;-60
2022/09/13 01:02:15;;;;;;;34.10;20.00;;;;;;;16.59;77.97;98201.39;25073;1313;3057257;-60
2022/09/13 01:04:44;;;;;;;19.60;11.50;;;;;;;16.41;78.87;98207.31;25090;1313;3026555;-59
2022/09/13 01:07:14;;;;;;;29.90;15.50;;;;;;;16.73;78.25;98202.17;25047;1313;3054601;-60
2022/09/13 01:09:44;;;;;;;37.70;17.50;;;;;;;17.23;76.49;98202.08;25032;1313;3026481;-60
2022/09/13 01:12:36;;;;;;;40.30;17.90;;;;;;;17.19;75.65;98199.46;25050;1313;3027327;-61
2022/09/13 01:15:05;;;;;;;30.00;17.60;;;;;;;16.98;76.51;98199.29;25072;1313;3055505;-59
2022/09/13 01:17:38;;;;;;;31.80;17.30;;;;;;;16.91;76.39;98196.55;25116;1313;3026345;-60
2022/09/13 01:20:08;;;;;;;31.20;17.50;;;;;;;16.73;76.88;98199.73;25069;1313;3026623;-60
2022/09/13 01:23:04;;;;;;;20.30;10.10;;;;;;;16.65;77.29;98199.64;25045;1313;3027174;-63
2022/09/13 01:25:55;;;;;;;25.90;13.60;;;;;;;17.29;75.83;98193.91;25031;1313;3055308;-62
2022/09/13 01:28:54;;;;;;;32.40;16.30;;;;;;;17.68;74.22;98197.30;25118;1313;3055909;-61
2022/09/13 01:31:24;;;;;;;24.60;15.40;;;;;;;17.61;74.35;98199.99;25069;1313;3058952;-61
2022/09/13 01:33:55;;;;;;;28.00;17.20;;;;;;;17.40;75.00;98206.20;25048;1313;3026427;-62
2022/09/13 01:36:50;;;;;;;31.30;17.40;;;;;;;17.21;75.23;98204.49;25106;1313;3026978;-61
2022/09/13 01:39:38;;;;;;;;;;;;;;;17.01;75.61;98206.13;25046;1313;3052075;-61
2022/09/13 01:42:23;;;;;;;25.80;16.00;;;;;;;16.76;76.68;98202.18;25041;1313;3070703;-62
2022/09/13 01:45:06;;;;;;;16.00;8.50;;;;;;;16.69;77.25;98201.41;25085;1313;3052286;-61
2022/09/13 01:48:32;;;;;;;27.60;15.10;;;;;;;17.39;75.23;98197.27;25115;1312;3055224;-60
2022/09/13 01:51:38;;;;;;;29.40;16.40;;;;;;;17.91;73.60;98195.73;24877;1313;3054884;-63
2022/09/13 01:54:26;;;;;;;26.60;17.50;;;;;;;17.81;73.49;98195.21;25016;1313;3057664;-63
2022/09/13 01:57:15;;;;;;;27.60;17.80;;;;;;;17.60;73.69;98193.77;25024;1313;3052855;-62
2022/09/13 02:00:07;;;;;;;28.60;18.30;;;;;;;17.38;74.03;98191.40;25060;1313;3055557;-62
2022/09/13 02:03:06;;;;;;;30.60;18.40;;;;;;;17.12;74.81;98194.20;25050;1313;3053950;-61
2022/09/13 02:05:40;;;;;;;23.40;10.20;;;;;;;17.00;74.87;98194.20;25048;1313;3069676;-62
2022/09/13 02:08:12;;;;;;;30.60;15.90;;;;;;;17.58;73.43;98194.46;25074;1313;3052566;-61
2022/09/13 02:10:45;;;;;;;34.10;18.70;;;;;;;18.00;72.26;98192.42;25053;1313;3027055;-61
2022/09/13 02:13:16;;;;;;;28.70;18.30;;;;;;;17.98;71.90;98191.06;25106;1313;3026283;-61
2022/09/13 02:15:47;;;;;;;37.90;20.60;;;;;;;17.70;72.46;98196.92;25056;1313;3029766;-62
2022/09/13 02:18:30;;;;;;;31.80;19.60;;;;;;;17.49;73.13;98197.60;25144;1313;3026551;-60
2022/09/13 02:21:02;;;;;;;35.00;19.80;;;;;;;17.31;73.70;98199.98;25125;1313;3053000;-61
2022/09/13 02:23:37;;;;;;;42.40;22.00;;;;;;;17.11;74.47;98200.48;25059;1313;3026527;-62
2022/09/13 02:26:07;;;;;;;23.10;12.70;;;;;;;16.92;75.30;98200.33;25055;1313;3068774;-61
2022/09/13 02:28:39;;;;;;;36.20;17.00;;;;;;;17.47;74.28;98194.77;25087;1313;3026448;-64
2022/09/13 02:31:08;;;;;;;40.40;21.10;;;;;;;17.99;72.86;98192.29;25110;1313;3055899;-59
2022/09/13 02:33:46;;;;;;;36.70;17.90;;;;;;;18.02;72.30;98188.30;25018;1313;3026706;-62
2022/09/13 02:36:19;;;;;;;41.10;20.80;;;;;;;17.80;72.68;98189.10;25092;1313;3048543;-61
2022/09/13 02:38:54;;;;;;;44.10;21.50;;;;;;;17.56;73.34;98190.79;25088;1313;3026934;-60
2022/09/13 02:41:34;;;;;;;41.30;23.00;;;;;;;17.29;74.56;98191.25;25069;1313;3055151;-60
2022/09/13 02:44:09;;;;;;;39.80;20.30;;;;;;;17.05;75.55;98193.81;25050;1313;3056534;-60
2022/09/13 02:47:07;;;;;;;21.10;8.70;;;;;;;16.89;76.32;98192.52;25077;1314;3053563;-60
2022/09/13 02:50:11;;;;;;;15.70;8.80;;;;;;;17.51;74.40;98182.73;25092;1316;3053527;-61
2022/09/13 02:53:06;;;;;;;24.60;10.50;;;;;;;17.86;72.69;98177.63;25065;1316;3054144;-59
2022/09/13 02:56:17;;;;;;;27.20;11.50;;;;;;;17.69;73.09;98182.23;25040;1315;3070910;-59
2022/09/13 02:58:52;;;;;;;18.60;10.80;;;;;;;17.37;73.79;98186.07;25040;1316;3048777;-60
2022/09/13 03:01:21;;;;;;;19.70;11.00;;;;;;;17.11;75.15;98186.72;25069;1316;3054204;-60
2022/09/13 03:03:52;;;;;;;24.20;11.30;;;;;;;16.90;75.67;98185.73;25067;1315;3026741;-61
2022/09/13 03:06:23;;;;;;;15.80;6.00;;;;;;;16.74;76.26;98184.02;25060;1315;3026252;-61
2022/09/13 03:08:53;;;;;;;24.00;9.70;;;;;;;17.21;75.44;98179.81;25090;1315;3026780;-61
2022/09/13 03:11:31;;;;;;;26.60;10.20;;;;;;;17.63;73.44;98177.29;25093;1316;3026479;-61
2022/09/13 03:14:16;;;;;;;18.00;10.30;;;;;;;17.65;72.98;98175.66;25085;1315;3054627;-60
2022/09/13 03:17:06;;;;;;;26.20;11.60;;;;;;;17.44;73.70;98177.98;25033;1315;3071403;-63
2022/09/13 03:19:50;;;;;;;23.10;12.10;;;;;;;17.08;75.01;98174.84;25078;1314;3052355;-60
2022/09/13 03:22:22;;;;;;;28.70;13.30;;;;;;;16.82;76.56;98172.06;25032;1317;3054668;-60
2022/09/13 03:25:12;;;;;;;17.50;9.50;;;;;;;16.70;76.42;98166.48;25059;1315;3026559;-62
2022/09/13 03:27:51;;;;;;;37.80;18.30;;;;;;;17.28;74.72;98161.31;25104;1315;3058243;-60
2022/09/13 03:30:20;;;;;;;41.00;20.00;;;;;;;17.60;72.99;98159.55;25089;1315;3052706;-62
2022/09/13 03:32:50;;;;;;;39.70;18.50;;;;;;;17.54;73.48;98162.17;25042;1316;3026676;-62
2022/09/13 03:35:22;;;;;;;44.10;21.60;;;;;;;17.39;73.96;98164.69;25031;1315;3058515;-62
2022/09/13 03:38:14;;;;;;;53.00;23.80;;;;;;;17.20;74.68;98159.73;25044;1316;3026302;-62
2022/09/13 03:40:53;;;;;;;46.70;23.90;;;;;;;17.01;74.82;98158.60;25089;1316;3056066;-62
2022/09/13 03:43:43;;;;;;;30.10;15.00;;;;;;;16.91;75.06;98156.97;25112;1316;3051473;-60
2022/09/13 03:46:31;;;;;;;45.20;20.90;;;;;;;17.51;73.55;98148.91;25070;1316;3070894;-61
2022/09/13 03:49:02;;;;;;;52.20;23.40;;;;;;;17.89;72.02;98149.27;25100;1316;3049434;-61
2022/09/13 03:51:31;;;;;;;52.40;22.60;;;;;;;17.80;72.53;98153.80;25066;1316;3026198;-62
2022/09/13 03:54:03;;;;;;;48.90;23.80;;;;;;;17.66;72.59;98155.90;25069;1315;3026212;-62
2022/09/13 03:56:32;;;;;;;53.30;25.60;;;;;;;17.44;73.26;98156.92;25074;1316;3048113;-61
2022/09/13 03:59:01;;;;;;;61.20;26.10;;;;;;;17.18;73.96;98155.44;25012;1316;3026338;-58
2022/09/13 04:01:30;;;;;;;49.00;24.60;;;;;;;16.94;74.32;98155.96;25056;1315;3070123;-63
2022/09/13 04:04:00;;;;;;;21.30;11.70;;;;;;;16.71;75.49;98156.39;25052;1316;3027363;-61
2022/09/13 04:06:29;;;;;;;32.50;17.60;;;;;;;17.34;73.92;98153.95;25054;1316;3028389;-61
2022/09/13 04:08:59;;;;;;;42.20;21.30;;;;;;;17.59;73.02;98158.44;25122;1314;3070680;-63
2022/09/13 04:11:30;;;;;;;42.00;22.70;;;;;;;17.43;73.02;98158.45;25082;1316;3027812;-62
2022/09/13 04:13:59;;;;;;;48.00;25.70;;;;;;;17.32;73.03;98155.78;25030;1316;3026869;-60
2022/09/13 04:16:28;;;;;;;71.00;31.70;;;;;;;16.98;73.39;98155.76;25098;1313;3026756;-61
2022/09/13 04:18:57;;;;;;;81.70;35.20;;;;;;;16.69;73.94;98155.77;25053;1313;3051464;-62
2022/09/13 04:21:26;;;;;;;58.50;23.70;;;;;;;16.32;75.77;98160.08;25141;1316;3028886;-61
2022/09/13 04:23:55;;;;;;;75.30;33.60;;;;;;;16.65;75.74;98160.92;25090;1314;3069609;-63
2022/09/13 04:26:25;;;;;;;80.30;35.90;;;;;;;16.96;74.40;98154.68;25064;1315;3026535;-63
2022/09/13 04:28:54;;;;;;;91.60;37.20;;;;;;;17.06;73.76;98155.88;25086;1315;3026595;-61
2022/09/13 04:31:24;;;;;;;91.40;37.70;;;;;;;16.92;73.64;98162.90;25108;1316;3070545;-63
2022/09/13 04:33:53;;;;;;;94.20;38.90;;;;;;;16.72;73.68;98163.59;25055;1313;3026529;-62
2022/09/13 04:36:22;;;;;;;79.50;34.00;;;;;;;16.43;74.80;98166.81;25083;1313;3053508;-62
2022/09/13 04:38:51;;;;;;;56.20;22.70;;;;;;;16.14;76.40;98170.39;25056;1313;3028497;-60
2022/09/13 04:41:20;;;;;;;57.60;26.80;;;;;;;16.61;75.97;98161.77;25149;1313;3052185;-64
2022/09/13 04:43:49;;;;;;;79.50;32.10;;;;;;;17.07;73.55;98155.46;25050;1316;3028253;-62
2022/09/13 04:46:18;;;;;;;65.50;30.90;;;;;;;16.85;73.42;98154.98;25108;1313;3049500;-61
2022/09/13 04:48:51;;;;;;;68.00;31.70;;;;;;;16.66;74.13;98158.51;25129;1313;3027280;-61
2022/09/13 04:51:20;;;;;;;65.00;31.90;;;;;;;16.52;73.64;98165.67;25120;1313;3026365;-64
2022/09/13 04:53:54;;;;;;;55.80;27.00;;;;;;;16.07;75.44;98172.28;25071;1313;3028235;-61
2022/09/13 04:56:23;;;;;;;44.80;20.50;;;;;;;15.98;75.88;98170.98;25097;1313;3055108;-63
2022/09/13 04:58:53;;;;;;;50.40;22.60;;;;;;;16.39;74.92;98160.71;25097;1313;3026363;-63
2022/09/13 05:01:23;;;;;;;56.00;25.20;;;;;;;16.52;74.42;98159.55;25078;1313;3026897;-61
2022/09/13 05:03:53;;;;;;;57.90;25.30;;;;;;;16.60;73.87;98157.84;25074;1313;3026354;-62
2022/09/13 05:06:24;;;;;;;53.50;25.70;;;;;;;16.42;73.88;98162.02;25093;1313;3028151;-64
2022/09/13 05:08:54;;;;;;;50.50;24.00;;;;;;;16.13;74.58;98169.62;25123;1313;3026621;-62
2022/09/13 05:11:25;;;;;;;33.60;14.30;;;;;;;15.92;75.51;98164.67;25040;1313;3051938;-62
2022/09/13 05:13:56;;;;;;;40.80;18.60;;;;;;;16.46;74.54;98167.92;25102;1316;3027480;-59
2022/09/13 05:16:26;;;;;;;44.90;21.90;;;;;;;16.57;74.14;98160.00;25060;1316;3026641;-65
2022/09/13 05:18:56;;;;;;;43.40;19.20;;;;;;;16.49;74.18;98166.93;25118;1315;3026172;-64
2022/09/13 05:21:26;;;;;;;44.20;20.50;;;;;;;16.48;74.10;98163.63;25044;1313;3026364;-62
2022/09/13 05:23:56;;;;;;;44.90;21.30;;;;;;;16.33;74.20;98169.29;25063;1313;3026685;-63
2022/09/13 05:26:26;;;;;;;41.60;20.00;;;;;;;16.10;74.85;98172.02;25100;1313;3026409;-62
2022/09/13 05:28:56;;;;;;;23.80;11.00;;;;;;;15.88;75.87;98175.87;25036;1313;3026882;-62
2022/09/13 05:31:30;;;;;;;32.50;15.40;;;;;;;16.27;75.31;98171.84;25051;1313;3026543;-64
2022/09/13 05:34:00;;;;;;;;;;;;;;;16.89;73.38;98170.65;25075;1313;3054802;-61
2022/09/13 05:36:29;;;;;;;28.20;14.60;;;;;;;16.87;72.50;98168.41;25044;1313;3026568;-64
2022/09/13 05:38:59;;;;;;;33.50;16.00;;;;;;;16.61;72.79;98175.14;25107;1313;3030057;-60
2022/09/13 05:41:28;;;;;;;35.30;16.30;;;;;;;16.40;72.98;98176.19;25112;1313;3053986;-62
2022/09/13 05:43:58;;;;;;;36.00;17.90;;;;;;;16.12;74.07;98179.04;25082;1313;3026735;-62
2022/09/13 05:46:26;;;;;;;16.60;9.90;;;;;;;15.91;74.77;98175.80;25113;1313;3050984;-63
2022/09/13 05:48:58;;;;;;;30.90;15.90;;;;;;;16.39;74.50;98170.79;25113;1313;3026867;-62
2022/09/13 05:51:27;;;;;;;34.80;18.60;;;;;;;16.95;72.95;98173.34;25038;1313;3071201;-64
2022/09/13 05:53:57;;;;;;;37.00;17.40;;;;;;;16.91;72.01;98171.30;25117;1313;3026779;-63
2022/09/13 05:56:27;;;;;;;31.50;17.40;;;;;;;16.61;73.11;98176.73;25100;1313;3053839;-64
2022/09/13 05:58:57;;;;;;;38.20;18.80;;;;;;;16.33;73.83;98189.30;25134;1313;3026354;-62
2022/09/13 06:01:26;;;;;;;35.90;18.20;;;;;;;16.10;74.64;98191.67;25074;1313;3026277;-62
2022/09/13 06:03:56;;;;;;;41.40;18.60;;;;;;;15.87;75.74;98192.70;25149;1313;3027033;-62
2022/09/13 06:06:26;;;;;;;19.40;9.50;;;;;;;15.71;76.43;98190.86;25104;1313;3026496;-65
2022/09/13 06:08:55;;;;;;;20.10;11.90;;;;;;;16.42;74.64;98189.55;25139;1313;3026597;-60
2022/09/13 06:11:25;;;;;;;24.80;13.10;;;;;;;16.97;72.81;98188.13;25083;1316;3054538;-61
2022/09/13 06:13:55;;;;;;;22.20;12.60;;;;;;;17.02;71.52;98192.06;25062;1313;3025947;-62
2022/09/13 06:16:24;;;;;;;22.90;12.50;;;;;;;16.74;71.91;98191.14;25153;1313;3026458;-61
2022/09/13 06:18:53;;;;;;;24.30;13.90;;;;;;;16.59;72.21;98195.69;25067;1316;3026246;-64
2022/09/13 06:21:22;;;;;;;22.80;13.20;;;;;;;16.48;71.98;98203.09;25100;1313;3054988;-63
2022/09/13 06:23:52;;;;;;;24.80;12.70;;;;;;;16.19;73.09;98203.77;25064;1313;3026232;-61
2022/09/13 06:26:26;;;;;;;11.40;6.70;;;;;;;15.99;74.20;98204.67;25081;1313;3052133;-60
2022/09/13 06:28:56;;;;;;;13.90;9.30;;;;;;;16.63;73.38;98206.20;25121;1316;3026707;-61
2022/09/13 06:31:26;;;;;;;20.50;11.00;;;;;;;16.94;71.75;98199.88;25087;1313;3026979;-65
2022/09/13 06:33:59;;;;;;;25.10;11.80;;;;;;;16.89;72.29;98201.44;25098;1313;3026838;-63
2022/09/13 06:36:28;;;;;;;19.80;11.40;;;;;;;16.78;71.86;98205.92;25111;1313;3027150;-60
2022/09/13 06:38:59;;;;;;;18.50;12.50;;;;;;;16.59;72.28;98210.77;25059;1315;3026882;-63
2022/09/13 06:41:28;;;;;;;18.10;11.20;;;;;;;16.35;73.11;98211.45;25079;1313;3049253;-62
2022/09/13 06:43:58;;;;;;;19.20;10.80;;;;;;;16.16;73.74;98211.34;25102;1314;3026448;-60
2022/09/13 06:46:29;;;;;;;11.90;7.20;;;;;;;16.14;73.73;98217.88;25099;1316;3057048;-65
2022/09/13 06:49:02;;;;;;;15.40;9.00;;;;;;;16.57;72.85;98210.80;25073;1315;3026290;-62
2022/09/13 06:51:32;;;;;;;19.90;11.50;;;;;;;16.88;72.06;98205.91;25109;1315;3054146;-60
2022/09/13 06:54:02;;;;;;;19.90;10.10;;;;;;;16.83;71.88;98206.06;25115;1313;3026273;-62
2022/09/13 06:56:31;;;;;;;19.90;10.10;;;;;;;16.66;71.96;98206.47;24090;1316;3036492;-63
2022/09/13 06:59:04;;;;;;;25.30;15.70;;;;;;;16.67;71.22;98198.59;25159;1316;3055455;-59
2022/09/13 07:01:38;;;;;;;22.40;13.30;;;;;;;16.33;72.87;98202.85;25068;1313;3051641;-61
2022/09/13 07:04:12;;;;;;;12.50;7.10;;;;;;;16.23;73.60;98210.43;25067;1313;3068258;-63
2022/09/13 07:06:42;;;;;;;19.20;11.00;;;;;;;16.79;72.70;98210.53;25073;1315;3049665;-62
2022/09/13 07:09:14;;;;;;;27.50;13.20;;;;;;;17.45;69.83;98210.12;25095;1316;3026350;-60
2022/09/13 07:11:44;;;;;;;26.50;15.10;;;;;;;17.24;70.17;98217.83;25076;1313;3027331;-62
2022/09/13 07:14:14;;;;;;;31.30;15.50;;;;;;;17.10;69.86;98218.44;25049;1313;3026569;-61
2022/09/13 07:16:45;;;;;;;31.60;15.60;;;;;;;16.86;70.45;98217.49;25107;1313;3027414;-63
2022/09/13 07:19:15;;;;;;;32.20;15.30;;;;;;;16.47;71.86;98220.81;25166;1313;3026255;-61
2022/09/13 07:21:44;;;;;;;32.40;16.10;;;;;;;16.23;72.66;98218.41;25130;1313;3026025;-61
2022/09/13 07:24:13;;;;;;;14.60;7.10;;;;;;;16.07;73.92;98216.55;25093;1313;3026783;-61
2022/09/13 07:26:43;;;;;;;19.10;10.10;;;;;;;16.52;73.04;98215.23;25131;1313;3054914;-65
2022/09/13 07:29:15;;;;;;;22.50;12.20;;;;;;;17.06;71.38;98215.34;25167;1313;3025884;-62
2022/09/13 07:31:45;;;;;;;24.10;12.60;;;;;;;17.05;70.74;98214.34;25075;1313;3026828;-64
2022/09/13 07:34:19;;;;;;;24.10;13.00;;;;;;;16.90;70.63;98218.67;25180;1313;3026783;-62
2022/09/13 07:36:48;;;;;;;21.40;12.00;;;;;;;16.53;71.73;98221.30;25141;1313;3056907;-59
2022/09/13 07:39:18;;;;;;;25.20;13.00;;;;;;;16.37;72.10;98221.58;25111;1313;3026497;-63
2022/09/13 07:41:47;;;;;;;31.40;15.20;;;;;;;16.10;73.08;98221.67;25083;1312;3026639;-66
2022/09/13 07:44:16;;;;;;;20.20;10.30;;;;;;;15.76;75.31;98218.98;25079;1313;3053877;-64
2022/09/13 07:46:45;;;;;;;32.70;14.30;;;;;;;16.32;74.01;98214.82;25040;1313;3026146;-64
2022/09/13 07:49:16;;;;;;;33.30;17.00;;;;;;;16.68;72.08;98219.00;25089;1313;3048821;-60
2022/09/13 07:51:45;;;;;;;31.40;17.20;;;;;;;16.65;71.86;98220.39;25079;1313;3026495;-61
2022/09/13 07:54:15;;;;;;;31.60;17.60;;;;;;;16.51;72.02;98221.33;25138;1312;3026858;-65
2022/09/13 07:56:44;;;;;;;33.70;17.40;;;;;;;16.25;72.76;98226.50;25083;1313;3048004;-64
2022/09/13 07:59:14;;;;;;;32.60;17.60;;;;;;;16.21;72.19;98222.48;25046;1316;3026573;-63
2022/09/13 08:01:46;;;;;;;30.80;16.20;;;;;;;15.94;73.83;98220.30;25167;1313;3067972;-64
2022/09/13 08:04:20;;;;;;;21.40;9.70;;;;;;;15.89;73.61;98217.50;25057;1316;3026393;-61
2022/09/13 08:06:49;;;;;;;28.60;13.30;;;;;;;16.40;73.03;98215.55;25070;1313;3052442;-60
2022/09/13 08:09:19;;;;;;;27.20;14.10;;;;;;;16.80;71.08;98213.66;25071;1313;3027170;-61
2022/09/13 08:11:51;;;;;;;30.70;15.20;;;;;;;16.67;70.73;98221.63;25085;1316;3026472;-64
2022/09/13 08:14:21;;;;;;;26.00;14.90;;;;;;;16.46;71.25;98216.37;25103;1313;3051504;-60
2022/09/13 08:16:54;;;;;;;32.90;15.70;;;;;;;16.28;72.36;98216.77;25100;1316;3026099;-63
2022/09/13 08:19:23;;;;;;;36.60;16.90;;;;;;;15.97;73.93;98227.19;25031;1313;3027707;-63
2022/09/13 08:21:52;;;;;;;20.00;9.70;;;;;;;15.75;75.05;98221.70;25074;1313;3026832;-61
2022/09/13 08:24:21;;;;;;;26.10;13.60;;;;;;;16.26;74.29;98219.07;25051;1313;3054323;-64
2022/09/13 08:26:53;;;;;;;27.70;14.90;;;;;;;16.64;72.11;98222.05;25150;1313;3026312;-66
2022/09/13 08:29:24;;;;;;;30.20;16.20;;;;;;;16.34;72.55;98217.95;25092;1313;3026871;-65
2022/09/13 08:31:53;;;;;;;28.30;15.90;;;;;;;15.88;74.41;98223.43;25023;1313;3027141;-64
2022/09/13 08:34:23;;;;;;;32.60;16.90;;;;;;;15.68;74.71;98225.67;25083;1313;3026808;-64
2022/09/13 08:36:52;;;;;;;30.30;16.10;;;;;;;15.49;75.65;98223.20;25157;1313;3026856;-65
2022/09/13 08:39:21;;;;;;;20.30;10.30;;;;;;;15.52;75.22;98221.74;25068;1316;3054640;-63
2022/09/13 08:42:10;;;;;;;24.50;13.00;;;;;;;16.09;74.51;98216.61;25120;1313;3026629;-65
2022/09/13 08:45:00;;;;;;;26.00;13.40;;;;;;;16.83;71.75;98208.27;25030;1315;3048453;-64
2022/09/13 08:47:53;;;;;;;23.80;14.00;;;;;;;17.07;70.55;98205.55;25066;1315;3055447;-63
2022/09/13 08:50:25;;;;;;;25.20;13.50;;;;;;;16.82;70.95;98203.03;25132;1313;3051955;-65
2022/09/13 08:53:11;;;;;;;25.10;14.90;;;;;;;16.81;70.16;98205.64;25159;1315;3026231;-63
2022/09/13 08:55:51;;;;;;;27.50;14.80;;;;;;;16.50;72.28;98213.63;25158;1315;3049075;-61
2022/09/13 08:58:36;;;;;;;14.40;7.90;;;;;;;16.52;72.28;98212.01;25055;1316;3055446;-63
2022/09/13 09:01:07;;;;;;;;;;;;;;;17.10;70.14;98208.50;25491;1315;3054878;-66
2022/09/13 09:03:39;;;;;;;22.00;11.60;;;;;;;17.40;68.19;98210.29;25563;1313;3026031;-65
2022/09/13 09:06:12;;;;;;;17.80;11.70;;;;;;;17.45;67.97;98206.36;25051;1313;3026581;-64
2022/09/13 09:08:45;;;;;;;22.00;11.40;;;;;;;17.42;67.78;98203.02;25075;1316;3027380;-60
2022/09/13 09:11:38;;;;;;;17.50;11.60;;;;;;;17.18;68.22;98206.95;25098;1316;3027573;-64
2022/09/13 09:14:37;;;;;;;15.50;10.80;;;;;;;17.25;67.81;98203.23;25061;1313;3071105;-64
2022/09/13 09:17:11;;;;;;;20.90;12.00;;;;;;;17.23;67.60;98207.13;25114;1313;3051585;-64
2022/09/13 09:19:42;;;;;;;19.10;12.30;;;;;;;17.14;67.29;98204.20;25138;1313;3055081;-65
2022/09/13 09:22:17;;;;;;;18.90;11.70;;;;;;;17.03;68.09;98205.20;25054;1313;3026225;-63
2022/09/13 09:24:51;;;;;;;11.80;5.80;;;;;;;16.87;68.25;98209.77;25091;1313;3057974;-63
2022/09/13 09:27:20;;;;;;;12.80;8.10;;;;;;;17.33;67.06;98202.33;25136;1313;3051936;-66
2022/09/13 09:29:52;;;;;;;12.00;8.30;;;;;;;17.85;65.65;98202.34;25150;1316;3026481;-63
2022/09/13 09:32:27;;;;;;;13.60;9.50;;;;;;;18.05;64.79;98204.80;25063;1313;3055665;-64
2022/09/13 09:35:02;;;;;;;8.70;6.60;;;;;;;17.96;64.89;98209.08;25033;1313;3049406;-63
2022/09/13 09:37:31;;;;;;;9.20;7.20;;;;;;;17.72;64.84;98213.20;25005;1313;3054712;-64
2022/09/13 09:40:02;;;;;;;10.80;7.30;;;;;;;17.58;65.64;98209.17;25107;1316;3028621;-62
2022/09/13 09:42:38;;;;;;;9.90;7.20;;;;;;;17.54;65.55;98203.08;25085;1313;3049337;-62
2022/09/13 09:45:26;;;;;;;8.20;6.60;;;;;;;17.42;65.41;98204.91;25035;1315;3051322;-63
2022/09/13 09:48:00;;;;;;;9.40;6.90;;;;;;;17.32;65.84;98207.27;25112;1313;3053340;-63
2022/09/13 09:50:33;;;;;;;11.40;6.60;;;;;;;17.23;66.58;98208.77;25021;1316;3070089;-63
2022/09/13 09:53:15;;;;;;;9.00;7.00;;;;;;;17.24;67.00;98212.92;25045;1313;3026900;-63
2022/09/13 09:55:50;;;;;;;6.10;4.10;;;;;;;17.09;67.51;98215.49;25080;1313;3055481;-63
2022/09/13 09:58:36;;;;;;;9.50;6.80;;;;;;;17.81;65.23;98220.66;25052;1313;3055457;-62
2022/09/13 10:01:06;;;;;;;11.10;6.90;;;;;;;18.24;63.68;98220.40;25060;1313;3057587;-64
2022/09/13 10:03:35;;;;;;;12.80;7.00;;;;;;;18.27;62.78;98220.02;25042;1316;3026285;-63
2022/09/13 10:06:11;;;;;;;9.30;6.80;;;;;;;18.02;62.83;98220.71;25082;1313;3026623;-65
2022/09/13 10:08:41;;;;;;;13.10;7.20;;;;;;;17.72;63.68;98223.83;25063;1313;3060579;-62
2022/09/13 10:11:12;;;;;;;12.20;8.80;;;;;;;17.63;64.62;98220.14;25090;1313;3026063;-63
2022/09/13 10:14:00;;;;;;;12.50;7.60;;;;;;;17.47;65.06;98217.52;25051;1316;3026443;-64
2022/09/13 10:16:29;;;;;;;10.80;7.30;;;;;;;17.36;64.78;98223.33;25093;1313;3057324;-63
2022/09/13 10:19:24;;;;;;;10.00;6.60;;;;;;;17.33;64.69;98225.92;25110;1313;3026384;-63
2022/09/13 10:22:04;;;;;;;8.00;6.10;;;;;;;17.37;64.56;98224.73;25056;1313;3055643;-66
2022/09/13 10:24:34;;;;;;;8.60;5.50;;;;;;;17.47;64.24;98217.45;25111;1313;3051820;-62
2022/09/13 10:27:04;;;;;;;6.90;4.90;;;;;;;17.55;63.57;98216.74;25031;1313;3026608;-63
2022/09/13 10:29:33;;;;;;;6.60;5.00;;;;;;;17.68;62.85;98221.36;25051;1313;3054298;-63
2022/09/13 10:32:07;;;;;;;6.50;5.00;;;;;;;17.74;62.59;98215.91;25077;1313;3026317;-61
2022/09/13 10:34:36;;;;;;;6.50;5.00;;;;;;;17.77;62.66;98225.30;25098;1313;3069450;-63
2022/09/13 10:37:12;;;;;;;7.70;5.30;;;;;;;17.73;62.93;98227.04;25058;1313;3027962;-64
2022/09/13 10:40:07;;;;;;;6.70;4.90;;;;;;;17.56;63.88;98223.21;25053;1313;3053893;-63
2022/09/13 10:42:36;;;;;;;8.60;4.70;;;;;;;17.47;63.74;98221.90;25084;1313;3072986;-61
2022/09/13 10:45:07;;;;;;;11.10;5.60;;;;;;;17.47;63.25;98219.83;25080;1313;3026622;-62
2022/09/13 10:47:44;;;;;;;8.10;5.50;;;;;;;17.51;63.86;98220.48;25075;1313;3027536;-63
2022/09/13 10:50:21;;;;;;;6.40;4.60;;;;;;;17.36;62.47;98229.80;25033;1316;3055094;-62
2022/09/13 10:52:51;;;;;;;4.90;4.00;;;;;;;17.40;62.68;98226.71;25105;1313;3060827;-62
2022/09/13 10:55:25;;;;;;;6.20;4.10;;;;;;;17.76;62.24;98220.76;25111;1313;3028560;-64
2022/09/13 10:58:00;;;;;;;6.20;4.50;;;;;;;18.10;60.48;98220.35;25043;1316;3054574;-62
2022/09/13 11:00:51;;;;;;;6.50;4.50;;;;;;;18.30;59.86;98211.73;25147;1313;3054344;-65
2022/09/13 11:03:43;;;;;;;6.00;5.10;;;;;;;18.21;59.11;98214.55;25051;1313;3071227;-64
2022/09/13 11:06:26;;;;;;;6.50;4.80;;;;;;;18.26;60.07;98211.31;25086;1316;3052074;-65
2022/09/13 11:09:26;;;;;;;7.70;5.50;;;;;;;18.13;60.40;98213.99;25089;1316;3055582;-63
2022/09/13 11:12:17;;;;;;;5.90;5.10;;;;;;;17.95;60.77;98211.59;25037;1313;3055179;-64
2022/09/13 11:15:17;;;;;;;6.00;4.80;;;;;;;17.88;61.28;98210.33;25136;1316;3055905;-64
2022/09/13 11:18:10;;;;;;;7.20;5.10;;;;;;;17.83;61.41;98218.67;25003;1317;3052655;-65
2022/09/13 11:21:01;;;;;;;6.50;4.80;;;;;;;17.76;61.25;98218.22;25067;1316;3053553;-64
2022/09/13 11:23:40;;;;;;;6.20;4.70;;;;;;;17.62;61.31;98216.23;25015;1318;3054560;-62
2022/09/13 11:26:25;;;;;;;6.30;5.20;;;;;;;17.43;61.37;98215.30;25170;1316;3068826;-64
2022/09/13 11:29:10;;;;;;;7.30;5.30;;;;;;;17.41;61.34;98219.54;25126;1313;3049604;-65
2022/09/13 11:31:51;;;;;;;6.50;5.40;;;;;;;17.58;60.88;98218.98;25057;1315;3052942;-61
2022/09/13 11:34:38;;;;;;;6.80;5.20;;;;;;;17.69;60.23;98216.89;25023;1313;3052672;-63
2022/09/13 11:37:45;;;;;;;6.20;4.80;;;;;;;17.67;60.30;98210.52;25048;1313;3057217;-64
2022/09/13 11:40:36;;;;;;;5.20;4.30;;;;;;;17.66;60.43;98209.95;25097;1313;3052710;-63